createdAt,value
2022-10-15T00:00:08.214Z,14.34
2022-10-15T00:02:34.700Z,14.29
2022-10-15T00:05:01.346Z,14.31
2022-10-15T00:07:29.359Z,14.28
2022-10-15T00:09:55.788Z,14.16
2022-10-15T00:12:22.257Z,14.07
2022-10-15T00:14:48.639Z,14.00
2022-10-15T00:17:15.061Z,14.11
2022-10-15T00:19:41.484Z,14.24
2022-10-15T00:22:07.871Z,14.20
2022-10-15T00:24:34.286Z,14.17
2022-10-15T00:27:00.675Z,14.20
2022-10-15T00:29:27.147Z,14.32
2022-10-15T00:31:54.519Z,14.27
2022-10-15T00:34:20.908Z,14.22
2022-10-15T00:36:50.194Z,14.24
2022-10-15T00:39:17.092Z,14.25
2022-10-15T00:41:44.966Z,14.18
2022-10-15T00:44:28.842Z,14.22
2022-10-15T00:47:16.482Z,14.18
2022-10-15T00:49:55.435Z,14.21
2022-10-15T00:52:40.558Z,14.12
2022-10-15T00:55:22.895Z,14.09
2022-10-15T00:57:50.821Z,14.08
2022-10-15T01:00:18.432Z,14.10
2022-10-15T01:02:45.747Z,14.09
2022-10-15T01:05:15.013Z,14.13
2022-10-15T01:07:41.510Z,14.11
2022-10-15T01:10:10.548Z,14.00
2022-10-15T01:12:54.281Z,14.04
2022-10-15T01:15:39.853Z,14.10
2022-10-15T01:18:19.473Z,14.14
2022-10-15T01:21:13.760Z,14.09
2022-10-15T01:23:58.495Z,14.05
2022-10-15T01:26:37.090Z,14.04
2022-10-15T01:29:26.433Z,13.97
2022-10-15T01:32:17.725Z,13.96
2022-10-15T01:35:27.980Z,13.87
2022-10-15T01:38:03.419Z,13.92
2022-10-15T01:40:48.977Z,13.86
2022-10-15T01:43:30.158Z,13.90
2022-10-15T01:46:02.937Z,13.90
2022-10-15T01:48:31.607Z,13.90
2022-10-15T01:51:02.519Z,13.95
2022-10-15T01:53:29.626Z,13.91
2022-10-15T01:55:59.907Z,13.95
2022-10-15T01:58:28.726Z,14.00
2022-10-15T02:00:57.151Z,14.05
2022-10-15T02:03:23.801Z,14.08
2022-10-15T02:05:59.192Z,13.97
2022-10-15T02:08:42.330Z,14.00
2022-10-15T02:11:16.496Z,14.05
2022-10-15T02:13:52.614Z,14.07
2022-10-15T02:16:43.051Z,14.08
2022-10-15T02:19:18.323Z,14.10
2022-10-15T02:21:51.879Z,14.04
2022-10-15T02:24:23.904Z,14.01
2022-10-15T02:26:53.787Z,14.07
2022-10-15T02:29:23.815Z,14.12
2022-10-15T02:31:52.428Z,14.12
2022-10-15T02:34:22.423Z,14.15
2022-10-15T02:36:49.594Z,14.22
2022-10-15T02:39:24.251Z,14.28
2022-10-15T02:41:52.738Z,14.17
2022-10-15T02:44:19.743Z,14.12
2022-10-15T02:46:46.193Z,14.00
2022-10-15T02:49:12.562Z,14.03
2022-10-15T02:51:39.219Z,14.14
2022-10-15T02:54:07.066Z,14.16
2022-10-15T02:56:34.055Z,14.18
2022-10-15T02:59:00.523Z,14.22
2022-10-15T03:01:26.972Z,14.25
2022-10-15T03:03:53.568Z,14.24
2022-10-15T03:06:19.984Z,14.26
2022-10-15T03:08:46.480Z,14.24
2022-10-15T03:11:12.967Z,14.25
2022-10-15T03:13:39.593Z,14.24
2022-10-15T03:16:10.583Z,14.24
2022-10-15T03:18:40.472Z,14.16
2022-10-15T03:21:07.683Z,14.00
2022-10-15T03:26:05.697Z,14.05
2022-10-15T03:28:32.431Z,14.08
2022-10-15T03:30:59.385Z,14.12
2022-10-15T03:33:25.795Z,14.14
2022-10-15T03:35:52.808Z,14.14
2022-10-15T03:38:19.780Z,14.13
2022-10-15T03:40:46.396Z,14.14
2022-10-15T03:43:12.890Z,14.16
2022-10-15T03:45:39.394Z,14.15
2022-10-15T03:48:06.354Z,13.87
2022-10-15T03:50:33.022Z,14.00
2022-10-15T03:52:59.532Z,14.02
2022-10-15T03:55:25.898Z,14.10
2022-10-15T03:57:52.322Z,14.05
2022-10-15T04:00:18.856Z,14.08
2022-10-15T04:02:45.214Z,14.11
2022-10-15T04:05:11.669Z,14.12
2022-10-15T04:07:38.082Z,14.10
2022-10-15T04:10:04.676Z,14.12
2022-10-15T04:12:31.102Z,14.11
2022-10-15T04:14:57.484Z,14.10
2022-10-15T04:17:23.954Z,14.11
2022-10-15T04:19:50.347Z,14.08
2022-10-15T04:22:16.811Z,14.15
2022-10-15T04:24:43.337Z,14.18
2022-10-15T04:27:10.542Z,14.11
2022-10-15T04:29:37.063Z,14.13
2022-10-15T04:32:03.758Z,14.08
2022-10-15T04:34:30.260Z,14.07
2022-10-15T04:36:56.705Z,14.08
2022-10-15T04:39:23.074Z,14.09
2022-10-15T04:41:49.450Z,14.11
2022-10-15T04:44:15.863Z,14.09
2022-10-15T04:46:42.296Z,14.07
2022-10-15T04:49:08.810Z,14.10
2022-10-15T04:51:35.246Z,14.11
2022-10-15T04:54:01.748Z,14.10
2022-10-15T04:56:28.433Z,14.07
2022-10-15T04:58:54.827Z,14.09
2022-10-15T05:01:21.462Z,14.01
2022-10-15T05:03:48.935Z,14.08
2022-10-15T05:06:20.217Z,13.92
2022-10-15T05:08:47.958Z,13.93
2022-10-15T05:11:22.775Z,13.81
2022-10-15T05:13:49.629Z,13.94
2022-10-15T05:16:18.131Z,14.01
2022-10-15T05:18:46.383Z,14.01
2022-10-15T05:21:13.932Z,13.96
2022-10-15T05:23:40.925Z,14.02
2022-10-15T05:26:11.356Z,14.01
2022-10-15T05:28:37.928Z,14.04
2022-10-15T05:31:09.037Z,14.05
2022-10-15T05:33:36.071Z,14.07
2022-10-15T05:36:29.566Z,13.97
2022-10-15T05:38:58.520Z,13.99
2022-10-15T05:41:25.836Z,13.94
2022-10-15T05:43:54.098Z,13.91
2022-10-15T05:46:21.398Z,13.95
2022-10-15T05:48:56.199Z,13.90
2022-10-15T05:51:24.041Z,13.88
2022-10-15T05:53:57.823Z,13.77
2022-10-15T05:56:25.131Z,13.83
2022-10-15T05:58:51.997Z,13.83
2022-10-15T06:01:18.768Z,13.82
2022-10-15T06:03:45.232Z,13.81
2022-10-15T06:06:23.416Z,13.77
2022-10-15T06:08:50.788Z,13.75
2022-10-15T06:11:17.952Z,13.76
2022-10-15T06:13:45.355Z,13.76
2022-10-15T06:16:14.726Z,13.69
2022-10-15T06:18:43.029Z,13.44
2022-10-15T06:21:11.100Z,13.54
2022-10-15T06:23:37.719Z,13.68
2022-10-15T06:26:06.586Z,13.70
2022-10-15T06:28:33.517Z,13.67
2022-10-15T06:31:01.279Z,13.76
2022-10-15T06:33:28.876Z,13.70
2022-10-15T06:35:55.603Z,13.68
2022-10-15T06:38:22.050Z,13.72
2022-10-15T06:40:48.436Z,13.72
2022-10-15T06:43:14.946Z,13.76
2022-10-15T06:45:42.541Z,13.77
2022-10-15T06:48:09.355Z,13.76
2022-10-15T06:50:37.193Z,13.76
2022-10-15T06:53:04.381Z,13.67
2022-10-15T06:55:31.111Z,13.50
2022-10-15T06:57:57.871Z,13.53
2022-10-15T07:00:24.830Z,13.69
2022-10-15T07:02:51.481Z,13.80
2022-10-15T07:05:18.851Z,13.92
2022-10-15T07:07:55.817Z,14.00
2022-10-15T07:10:23.125Z,13.94
2022-10-15T07:12:49.560Z,13.99
2022-10-15T07:15:16.920Z,13.95
2022-10-15T07:17:51.180Z,13.95
2022-10-15T07:20:21.703Z,13.76
2022-10-15T07:22:50.658Z,13.72
2022-10-15T07:25:17.280Z,13.68
2022-10-15T07:27:43.660Z,13.77
2022-10-15T07:30:10.571Z,13.97
2022-10-15T07:32:37.089Z,14.03
2022-10-15T07:35:03.803Z,14.09
2022-10-15T07:37:30.239Z,14.18
2022-10-15T07:39:56.631Z,14.33
2022-10-15T07:42:23.060Z,14.35
2022-10-15T07:44:49.513Z,14.37
2022-10-15T07:47:15.994Z,14.35
2022-10-15T07:49:42.381Z,14.14
2022-10-15T07:52:08.856Z,14.09
2022-10-15T07:54:35.892Z,14.18
2022-10-15T07:57:02.387Z,14.28
2022-10-15T07:59:28.941Z,14.32
2022-10-15T08:01:55.406Z,14.39
2022-10-15T08:04:21.829Z,14.54
2022-10-15T08:06:49.625Z,14.61
2022-10-15T08:09:16.776Z,14.60
2022-10-15T08:11:43.673Z,14.59
2022-10-15T08:14:10.269Z,14.52
2022-10-15T08:16:36.715Z,14.51
2022-10-15T08:19:03.604Z,14.67
2022-10-15T08:21:30.160Z,14.78
2022-10-15T08:23:56.627Z,14.81
2022-10-15T08:26:23.045Z,14.84
2022-10-15T08:28:51.007Z,14.88
2022-10-15T08:31:19.151Z,14.93
2022-10-15T08:33:46.398Z,15.02
2022-10-15T08:36:12.902Z,15.05
2022-10-15T08:38:39.288Z,15.10
2022-10-15T08:41:19.801Z,15.17
2022-10-15T08:43:46.979Z,15.22
2022-10-15T08:46:22.826Z,15.19
2022-10-15T08:48:53.888Z,15.13
2022-10-15T08:51:24.270Z,15.23
2022-10-15T08:53:57.949Z,15.39
2022-10-15T08:56:26.845Z,15.37
2022-10-15T08:59:05.402Z,15.34
2022-10-15T09:01:44.033Z,15.49
2022-10-15T09:04:37.963Z,15.58
2022-10-15T09:07:18.253Z,15.68
2022-10-15T09:10:12.326Z,15.77
2022-10-15T09:12:44.491Z,15.76
2022-10-15T09:15:15.219Z,15.79
2022-10-15T09:17:43.945Z,15.87
2022-10-15T09:20:18.903Z,15.90
2022-10-15T09:25:27.462Z,16.02
2022-10-15T09:27:58.934Z,16.02
2022-10-15T09:30:38.431Z,16.10
2022-10-15T09:33:32.698Z,16.09
2022-10-15T09:36:08.230Z,16.17
2022-10-15T09:38:52.664Z,16.14
2022-10-15T09:41:19.001Z,16.22
2022-10-15T09:43:49.580Z,16.31
2022-10-15T09:46:15.960Z,16.44
2022-10-15T09:49:18.671Z,16.50
2022-10-15T09:52:10.465Z,16.47
2022-10-15T09:54:51.790Z,16.36
2022-10-15T09:57:22.196Z,16.33
2022-10-15T10:00:02.787Z,16.38
2022-10-15T10:02:30.085Z,16.45
2022-10-15T10:04:56.870Z,16.42
2022-10-15T10:07:32.650Z,16.41
2022-10-15T10:10:07.064Z,16.43
2022-10-15T10:12:37.445Z,16.48
2022-10-15T10:15:22.255Z,16.55
2022-10-15T10:17:56.649Z,16.51
2022-10-15T10:20:25.820Z,16.46
2022-10-15T10:23:00.853Z,16.50
2022-10-15T10:25:27.264Z,16.45
2022-10-15T10:27:55.634Z,16.53
2022-10-15T10:30:22.599Z,16.56
2022-10-15T10:32:56.530Z,16.58
2022-10-15T10:35:27.232Z,16.63
2022-10-15T10:37:53.841Z,16.65
2022-10-15T10:40:34.407Z,16.68
2022-10-15T10:43:12.813Z,16.74
2022-10-15T10:45:39.329Z,16.84
2022-10-15T10:48:19.809Z,16.91
2022-10-15T10:50:46.365Z,17.00
2022-10-15T10:53:24.366Z,16.99
2022-10-15T10:55:54.325Z,17.04
2022-10-15T10:58:26.414Z,17.00
2022-10-15T11:00:55.110Z,17.02
2022-10-15T11:03:34.071Z,17.09
2022-10-15T11:06:32.441Z,17.16
2022-10-15T11:09:23.898Z,17.23
2022-10-15T11:12:40.186Z,17.27
2022-10-15T11:15:33.731Z,17.31
2022-10-15T11:18:03.037Z,17.38
2022-10-15T11:21:01.738Z,17.39
2022-10-15T11:24:02.262Z,17.42
2022-10-15T11:27:11.784Z,17.43
2022-10-15T11:30:02.130Z,17.45
2022-10-15T11:33:02.262Z,17.44
2022-10-15T11:35:54.427Z,17.48
2022-10-15T11:38:46.522Z,17.50
2022-10-15T11:42:04.981Z,17.51
2022-10-15T11:44:46.288Z,17.52
2022-10-15T11:47:37.518Z,17.58
2022-10-15T11:50:17.126Z,17.59
2022-10-15T11:53:14.640Z,17.60
2022-10-15T11:55:53.437Z,17.61
2022-10-15T11:58:34.126Z,17.52
2022-10-15T12:01:12.281Z,17.58
2022-10-15T12:04:17.591Z,17.61
2022-10-15T12:06:49.753Z,17.58
2022-10-15T12:09:24.514Z,17.61
2022-10-15T12:12:10.646Z,17.64
2022-10-15T12:14:40.671Z,17.64
2022-10-15T12:17:22.452Z,17.65
2022-10-15T12:19:59.002Z,17.68
2022-10-15T12:22:56.824Z,17.70
2022-10-15T12:25:35.498Z,17.69
2022-10-15T12:28:05.023Z,17.67
2022-10-15T12:30:34.457Z,17.67
2022-10-15T12:33:02.621Z,17.70
2022-10-15T12:35:35.632Z,17.72
2022-10-15T12:38:20.853Z,17.72
2022-10-15T12:40:55.214Z,17.66
2022-10-15T12:43:22.050Z,17.63
2022-10-15T12:45:52.322Z,17.66
2022-10-15T12:48:27.724Z,17.69
2022-10-15T12:51:35.201Z,17.67
2022-10-15T12:54:02.435Z,17.66
2022-10-15T12:56:42.777Z,17.62
2022-10-15T12:59:30.831Z,17.61
2022-10-15T13:01:57.289Z,17.61
2022-10-15T13:04:23.855Z,17.55
2022-10-15T13:06:51.138Z,17.55
2022-10-15T13:09:29.337Z,17.58
2022-10-15T13:11:58.574Z,17.57
2022-10-15T13:14:30.841Z,17.60
2022-10-15T13:16:58.214Z,17.55
2022-10-15T13:19:39.586Z,17.49
2022-10-15T13:22:19.843Z,17.49
2022-10-15T13:24:46.401Z,17.47
2022-10-15T13:27:21.735Z,17.44
2022-10-15T13:30:16.550Z,17.44
2022-10-15T13:32:47.933Z,17.45
2022-10-15T13:35:20.621Z,17.49
2022-10-15T13:37:48.486Z,17.51
2022-10-15T13:40:24.345Z,17.52
2022-10-15T13:43:04.329Z,17.54
2022-10-15T13:45:31.194Z,17.53
2022-10-15T13:47:57.889Z,17.46
2022-10-15T13:50:32.825Z,17.46
2022-10-15T13:53:03.084Z,17.46
2022-10-15T13:55:33.702Z,17.49
2022-10-15T13:58:23.510Z,17.51
2022-10-15T14:01:00.550Z,17.54
2022-10-15T14:03:31.132Z,17.53
2022-10-15T14:06:09.712Z,17.54
2022-10-15T14:08:37.196Z,17.51
2022-10-15T14:11:03.833Z,17.50
2022-10-15T14:13:30.218Z,17.50
2022-10-15T14:16:17.990Z,17.53
2022-10-15T14:19:09.073Z,17.53
2022-10-15T14:21:37.599Z,17.49
2022-10-15T14:24:17.418Z,17.54
2022-10-15T14:26:44.521Z,17.51
2022-10-15T14:29:27.193Z,17.48
2022-10-15T14:31:53.729Z,17.46
2022-10-15T14:34:30.879Z,17.44
2022-10-15T14:36:57.531Z,17.43
2022-10-15T14:39:33.089Z,17.45
2022-10-15T14:42:02.305Z,17.46
2022-10-15T14:44:46.804Z,17.51
2022-10-15T14:47:22.851Z,17.56
2022-10-15T14:49:53.818Z,17.51
2022-10-15T14:52:22.652Z,17.45
2022-10-15T14:55:24.474Z,17.42
2022-10-15T14:57:52.350Z,17.42
2022-10-15T15:00:27.170Z,17.39
2022-10-15T15:02:58.307Z,17.31
2022-10-15T15:05:28.948Z,17.28
2022-10-15T15:07:57.099Z,17.24
2022-10-15T15:10:27.046Z,17.21
2022-10-15T15:12:56.222Z,17.16
2022-10-15T15:15:27.372Z,17.13
2022-10-15T15:17:54.014Z,17.10
2022-10-15T15:20:21.267Z,17.07
2022-10-15T15:22:50.330Z,17.03
2022-10-15T15:25:22.578Z,16.99
2022-10-15T15:27:48.940Z,16.96
2022-10-15T15:30:21.072Z,16.94
2022-10-15T15:32:48.083Z,16.91
2022-10-15T15:35:34.263Z,16.90
2022-10-15T15:38:00.643Z,16.86
2022-10-15T15:40:27.117Z,16.83
2022-10-15T15:42:55.849Z,16.86
2022-10-15T15:45:24.710Z,16.84
2022-10-15T15:47:51.515Z,16.85
2022-10-15T15:50:20.493Z,16.83
2022-10-15T15:52:47.503Z,16.78
2022-10-15T15:55:14.381Z,16.77
2022-10-15T15:57:41.271Z,16.76
2022-10-15T16:00:09.877Z,16.75
2022-10-15T16:02:37.178Z,16.69
2022-10-15T16:05:08.322Z,16.70
2022-10-15T16:07:35.447Z,16.68
2022-10-15T16:10:03.945Z,16.66
2022-10-15T16:12:30.397Z,16.62
2022-10-15T16:17:28.221Z,16.58
2022-10-15T16:19:54.763Z,16.55
2022-10-15T16:22:21.180Z,16.52
2022-10-15T16:24:47.557Z,16.51
2022-10-15T16:27:13.917Z,16.50
2022-10-15T16:29:40.348Z,16.44
2022-10-15T16:32:06.827Z,16.39
2022-10-15T16:34:33.314Z,16.32
2022-10-15T16:36:59.772Z,16.29
2022-10-15T16:39:26.211Z,16.31
2022-10-15T16:41:52.588Z,16.32
2022-10-15T16:44:18.999Z,16.30
2022-10-15T16:46:45.359Z,16.30
2022-10-15T16:49:11.715Z,16.28
2022-10-15T16:51:41.281Z,16.26
2022-10-15T16:54:15.430Z,16.25
2022-10-15T16:56:42.327Z,16.22
2022-10-15T16:59:09.184Z,16.15
2022-10-15T17:01:36.572Z,16.20
2022-10-15T17:04:03.290Z,16.19
2022-10-15T17:06:30.692Z,16.14
2022-10-15T17:08:59.741Z,16.12
2022-10-15T17:11:37.021Z,16.18
2022-10-15T17:14:08.875Z,16.18
2022-10-15T17:16:40.657Z,16.22
2022-10-15T17:19:08.915Z,16.20
2022-10-15T17:21:36.579Z,16.16
2022-10-15T17:24:05.931Z,16.19
2022-10-15T17:26:40.267Z,16.13
2022-10-15T17:29:13.448Z,16.10
2022-10-15T17:31:40.114Z,15.94
2022-10-15T17:34:08.382Z,16.05
2022-10-15T17:36:44.905Z,16.06
2022-10-15T17:39:13.259Z,16.04
2022-10-15T17:41:40.088Z,16.06
2022-10-15T17:44:06.536Z,16.05
2022-10-15T17:46:33.068Z,15.99
2022-10-15T17:49:00.486Z,15.98
2022-10-15T17:51:29.970Z,15.98
2022-10-15T17:53:57.459Z,15.96
2022-10-15T17:56:26.491Z,15.97
2022-10-15T17:58:53.705Z,15.90
2022-10-15T18:01:39.403Z,15.94
2022-10-15T18:04:12.606Z,15.89
2022-10-15T18:06:44.068Z,15.88
2022-10-15T18:09:10.479Z,15.80
2022-10-15T18:11:36.993Z,15.80
2022-10-15T18:14:03.975Z,15.80
2022-10-15T18:16:30.457Z,15.86
2022-10-15T18:18:56.876Z,15.84
2022-10-15T18:21:25.029Z,15.76
2022-10-15T18:23:51.570Z,15.76
2022-10-15T18:26:21.097Z,15.75
2022-10-15T18:28:50.121Z,15.73
2022-10-15T18:31:17.474Z,15.69
2022-10-15T18:33:46.475Z,15.60
2022-10-15T18:36:19.041Z,15.70
2022-10-15T18:38:45.574Z,15.66
2022-10-15T18:41:24.149Z,15.64
2022-10-15T18:43:54.835Z,15.65
2022-10-15T18:46:22.065Z,15.63
2022-10-15T18:48:48.952Z,15.60
2022-10-15T18:51:15.884Z,15.49
2022-10-15T18:53:42.301Z,15.48
2022-10-15T18:56:10.137Z,15.47
2022-10-15T18:58:39.014Z,15.37
2022-10-15T19:01:36.518Z,15.41
2022-10-15T19:04:09.639Z,15.32
2022-10-15T19:06:37.056Z,15.31
2022-10-15T19:09:06.445Z,15.30
2022-10-15T19:11:33.717Z,15.35
2022-10-15T19:14:01.247Z,15.30
2022-10-15T19:16:28.215Z,15.36
2022-10-15T19:18:54.658Z,15.39
2022-10-15T19:21:21.171Z,15.44
2022-10-15T19:23:47.956Z,15.36
2022-10-15T19:26:14.795Z,15.43
2022-10-15T19:28:41.421Z,15.42
2022-10-15T19:31:09.614Z,15.42
2022-10-15T19:33:37.768Z,15.37
2022-10-15T19:36:04.626Z,15.39
2022-10-15T19:38:31.115Z,15.35
2022-10-15T19:41:01.689Z,15.33
2022-10-15T19:43:28.169Z,15.37
2022-10-15T19:45:54.561Z,15.41
2022-10-15T19:48:22.873Z,15.38
2022-10-15T19:50:49.350Z,15.42
2022-10-15T19:53:17.006Z,15.38
2022-10-15T19:55:44.604Z,15.39
2022-10-15T19:58:11.095Z,15.39
2022-10-15T20:00:37.540Z,15.39
2022-10-15T20:03:04.102Z,15.41
2022-10-15T20:05:30.565Z,15.39
2022-10-15T20:07:56.938Z,15.42
2022-10-15T20:10:25.970Z,15.43
2022-10-15T20:12:53.085Z,15.38
2022-10-15T20:15:19.512Z,15.38
2022-10-15T20:17:46.756Z,15.32
2022-10-15T20:20:13.159Z,15.30
2022-10-15T20:22:39.543Z,15.22
2022-10-15T20:25:06.029Z,15.32
2022-10-15T20:27:32.825Z,15.32
2022-10-15T20:29:59.212Z,15.33
2022-10-15T20:32:41.235Z,15.36
2022-10-15T20:35:08.411Z,15.30
2022-10-15T20:37:35.217Z,15.03
2022-10-15T20:40:01.809Z,15.05
2022-10-15T20:42:28.448Z,15.27
2022-10-15T20:44:55.075Z,15.21
2022-10-15T20:47:23.348Z,15.20
2022-10-15T20:49:52.222Z,15.18
2022-10-15T20:52:19.199Z,15.19
2022-10-15T20:54:45.748Z,15.24
2022-10-15T20:57:12.661Z,15.08
2022-10-15T20:59:39.108Z,15.01
2022-10-15T21:02:05.526Z,15.14
2022-10-15T21:04:31.934Z,15.17
2022-10-15T21:06:58.328Z,15.17
2022-10-15T21:09:24.865Z,15.12
2022-10-15T21:11:51.246Z,15.14
2022-10-15T21:14:17.657Z,15.17
2022-10-15T21:16:44.188Z,15.12
2022-10-15T21:19:10.585Z,15.11
2022-10-15T21:21:37.075Z,15.14
2022-10-15T21:24:03.648Z,15.13
2022-10-15T21:26:30.050Z,15.00
2022-10-15T21:28:58.277Z,14.85
2022-10-15T21:31:25.996Z,14.87
2022-10-15T21:33:54.072Z,14.88
2022-10-15T21:36:27.959Z,14.96
2022-10-15T21:38:56.818Z,14.88
2022-10-15T21:41:24.833Z,14.98
2022-10-15T21:43:51.759Z,15.00
2022-10-15T21:46:18.553Z,14.96
2022-10-15T21:48:45.399Z,14.95
2022-10-15T21:51:14.442Z,14.91
2022-10-15T21:53:41.387Z,14.90
2022-10-15T21:56:10.948Z,14.90
2022-10-15T21:58:38.834Z,14.83
2022-10-15T22:01:09.698Z,14.83
2022-10-15T22:03:36.222Z,14.87
2022-10-15T22:06:02.642Z,14.83
2022-10-15T22:08:29.322Z,14.84
2022-10-15T22:10:55.750Z,14.84
2022-10-15T22:13:22.137Z,14.89
2022-10-15T22:15:48.521Z,14.90
2022-10-15T22:18:14.883Z,14.87
2022-10-15T22:23:12.698Z,14.88
2022-10-15T22:25:39.067Z,14.86
2022-10-15T22:28:05.486Z,14.81
2022-10-15T22:30:35.823Z,14.81
2022-10-15T22:33:02.204Z,14.87
2022-10-15T22:35:28.693Z,14.82
2022-10-15T22:37:57.890Z,14.81
2022-10-15T22:40:24.775Z,14.82
2022-10-15T22:42:51.142Z,14.90
2022-10-15T22:45:17.538Z,14.82
2022-10-15T22:47:44.065Z,14.86
2022-10-15T22:50:10.483Z,14.86
2022-10-15T22:52:36.873Z,14.81
2022-10-15T22:55:03.426Z,14.80
2022-10-15T22:57:29.802Z,14.90
2022-10-15T22:59:58.673Z,14.93
2022-10-15T23:02:26.074Z,14.92
2022-10-15T23:04:52.653Z,14.92
2022-10-15T23:07:19.043Z,14.93
2022-10-15T23:09:45.449Z,14.93
2022-10-15T23:12:11.813Z,14.93
2022-10-15T23:14:38.369Z,14.94
2022-10-15T23:17:04.751Z,14.95
2022-10-15T23:19:32.043Z,14.99
2022-10-15T23:21:59.919Z,14.98
2022-10-15T23:24:27.411Z,14.95
2022-10-15T23:26:53.824Z,14.94
2022-10-15T23:29:25.286Z,14.89
2022-10-15T23:31:52.218Z,14.99
2022-10-15T23:34:21.400Z,15.00
2022-10-15T23:36:48.339Z,15.01
2022-10-15T23:39:20.735Z,14.99
2022-10-15T23:41:47.595Z,14.96
2022-10-15T23:44:14.035Z,14.96
2022-10-15T23:46:40.835Z,14.93
2022-10-15T23:49:07.283Z,14.86
2022-10-15T23:51:36.939Z,14.92
2022-10-15T23:54:09.876Z,14.96
2022-10-15T23:56:36.225Z,14.96
2022-10-15T23:59:02.716Z,14.95
